sensor_id;sensor_type;location;lat;lon;timestamp;P1;durP1;ratioP1;P2;durP2;ratioP2
48522;SDS011;34315;50.150;11.070;2023-12-20T00:03:54;13.48;;;7.05;;
48522;SDS011;34315;50.150;11.070;2023-12-20T00:08:55;13.18;;;7.40;;
48522;SDS011;34315;50.150;11.070;2023-12-20T00:13:56;11.40;;;7.53;;
48522;SDS011;34315;50.150;11.070;2023-12-20T00:18:57;14.07;;;7.43;;
48522;SDS011;34315;50.150;11.070;2023-12-20T00:23:59;13.43;;;7.45;;
48522;SDS011;34315;50.150;11.070;2023-12-20T00:29:00;10.95;;;6.63;;
48522;SDS011;34315;50.150;11.070;2023-12-20T00:34:01;10.98;;;6.80;;
48522;SDS011;34315;50.150;11.070;2023-12-20T00:39:02;10.15;;;5.85;;
48522;SDS011;34315;50.150;11.070;2023-12-20T00:44:04;10.75;;;6.10;;
48522;SDS011;34315;50.150;11.070;2023-12-20T00:49:05;10.68;;;6.97;;
48522;SDS011;34315;50.150;11.070;2023-12-20T00:54:06;13.23;;;6.25;;
48522;SDS011;34315;50.150;11.070;2023-12-20T00:59:07;13.77;;;7.53;;
48522;SDS011;34315;50.150;11.070;2023-12-20T01:04:08;11.55;;;6.53;;
48522;SDS011;34315;50.150;11.070;2023-12-20T01:09:09;8.52;;;5.32;;
48522;SDS011;34315;50.150;11.070;2023-12-20T01:14:10;9.07;;;5.72;;
48522;SDS011;34315;50.150;11.070;2023-12-20T01:19:12;8.45;;;5.10;;
48522;SDS011;34315;50.150;11.070;2023-12-20T01:24:14;9.05;;;5.07;;
48522;SDS011;34315;50.150;11.070;2023-12-20T01:29:15;7.72;;;4.47;;
48522;SDS011;34315;50.150;11.070;2023-12-20T01:34:17;6.93;;;3.60;;
48522;SDS011;34315;50.150;11.070;2023-12-20T01:39:18;6.78;;;4.13;;
48522;SDS011;34315;50.150;11.070;2023-12-20T01:44:19;5.28;;;3.28;;
48522;SDS011;34315;50.150;11.070;2023-12-20T01:49:20;7.43;;;3.30;;
48522;SDS011;34315;50.150;11.070;2023-12-20T01:54:22;6.60;;;3.97;;
48522;SDS011;34315;50.150;11.070;2023-12-20T01:59:23;4.63;;;2.58;;
48522;SDS011;34315;50.150;11.070;2023-12-20T02:04:25;4.47;;;2.30;;
48522;SDS011;34315;50.150;11.070;2023-12-20T02:09:26;3.90;;;2.53;;
48522;SDS011;34315;50.150;11.070;2023-12-20T02:14:28;4.53;;;2.47;;
48522;SDS011;34315;50.150;11.070;2023-12-20T02:19:29;4.15;;;2.30;;
48522;SDS011;34315;50.150;11.070;2023-12-20T02:24:30;3.63;;;2.00;;
48522;SDS011;34315;50.150;11.070;2023-12-20T02:29:32;3.03;;;1.48;;
48522;SDS011;34315;50.150;11.070;2023-12-20T02:34:33;3.85;;;1.80;;
48522;SDS011;34315;50.150;11.070;2023-12-20T02:39:34;2.65;;;1.50;;
48522;SDS011;34315;50.150;11.070;2023-12-20T02:44:35;4.80;;;2.45;;
48522;SDS011;34315;50.150;11.070;2023-12-20T02:49:37;2.95;;;1.90;;
48522;SDS011;34315;50.150;11.070;2023-12-20T02:54:38;2.25;;;1.70;;
48522;SDS011;34315;50.150;11.070;2023-12-20T02:59:39;2.40;;;1.60;;
48522;SDS011;34315;50.150;11.070;2023-12-20T03:04:40;3.22;;;1.75;;
48522;SDS011;34315;50.150;11.070;2023-12-20T03:09:41;3.72;;;1.88;;
48522;SDS011;34315;50.150;11.070;2023-12-20T03:14:43;3.20;;;1.65;;
48522;SDS011;34315;50.150;11.070;2023-12-20T03:19:45;3.30;;;1.92;;
48522;SDS011;34315;50.150;11.070;2023-12-20T03:24:46;2.65;;;1.63;;
48522;SDS011;34315;50.150;11.070;2023-12-20T03:29:47;3.42;;;1.98;;
48522;SDS011;34315;50.150;11.070;2023-12-20T03:34:48;2.85;;;1.50;;
48522;SDS011;34315;50.150;11.070;2023-12-20T03:39:49;3.38;;;1.55;;
48522;SDS011;34315;50.150;11.070;2023-12-20T03:44:50;1.38;;;0.73;;
48522;SDS011;34315;50.150;11.070;2023-12-20T03:49:51;1.58;;;1.20;;
48522;SDS011;34315;50.150;11.070;2023-12-20T03:54:52;3.03;;;1.13;;
48522;SDS011;34315;50.150;11.070;2023-12-20T03:59:54;2.67;;;1.40;;
48522;SDS011;34315;50.150;11.070;2023-12-20T04:04:57;2.13;;;1.25;;
48522;SDS011;34315;50.150;11.070;2023-12-20T04:09:58;2.63;;;1.40;;
48522;SDS011;34315;50.150;11.070;2023-12-20T04:14:59;3.45;;;1.50;;
48522;SDS011;34315;50.150;11.070;2023-12-20T04:20:00;1.75;;;0.93;;
48522;SDS011;34315;50.150;11.070;2023-12-20T04:25:01;1.80;;;1.20;;
48522;SDS011;34315;50.150;11.070;2023-12-20T04:30:03;1.98;;;1.10;;
48522;SDS011;34315;50.150;11.070;2023-12-20T04:35:04;1.50;;;0.88;;
48522;SDS011;34315;50.150;11.070;2023-12-20T04:40:05;1.58;;;0.95;;
48522;SDS011;34315;50.150;11.070;2023-12-20T04:45:08;1.77;;;1.20;;
48522;SDS011;34315;50.150;11.070;2023-12-20T04:50:10;4.18;;;1.30;;
48522;SDS011;34315;50.150;11.070;2023-12-20T04:55:11;2.70;;;1.55;;
48522;SDS011;34315;50.150;11.070;2023-12-20T05:00:13;4.22;;;1.33;;
48522;SDS011;34315;50.150;11.070;2023-12-20T05:05:16;1.95;;;1.20;;
48522;SDS011;34315;50.150;11.070;2023-12-20T05:10:18;2.05;;;1.20;;
48522;SDS011;34315;50.150;11.070;2023-12-20T05:15:19;5.70;;;1.60;;
48522;SDS011;34315;50.150;11.070;2023-12-20T05:20:20;2.05;;;1.48;;
48522;SDS011;34315;50.150;11.070;2023-12-20T05:25:21;2.20;;;1.30;;
48522;SDS011;34315;50.150;11.070;2023-12-20T05:30:22;2.83;;;1.55;;
48522;SDS011;34315;50.150;11.070;2023-12-20T05:35:23;2.55;;;1.58;;
48522;SDS011;34315;50.150;11.070;2023-12-20T05:40:24;3.45;;;1.98;;
48522;SDS011;34315;50.150;11.070;2023-12-20T05:45:25;2.60;;;1.65;;
48522;SDS011;34315;50.150;11.070;2023-12-20T05:50:26;2.15;;;1.42;;
48522;SDS011;34315;50.150;11.070;2023-12-20T05:55:28;2.40;;;1.58;;
48522;SDS011;34315;50.150;11.070;2023-12-20T06:00:29;2.40;;;1.60;;
48522;SDS011;34315;50.150;11.070;2023-12-20T06:05:30;2.17;;;1.60;;
48522;SDS011;34315;50.150;11.070;2023-12-20T06:10:31;3.10;;;1.90;;
48522;SDS011;34315;50.150;11.070;2023-12-20T06:15:32;2.63;;;1.80;;
48522;SDS011;34315;50.150;11.070;2023-12-20T06:20:34;1.63;;;1.45;;
48522;SDS011;34315;50.150;11.070;2023-12-20T06:25:36;2.65;;;1.63;;
48522;SDS011;34315;50.150;11.070;2023-12-20T06:30:37;2.30;;;1.50;;
48522;SDS011;34315;50.150;11.070;2023-12-20T06:35:38;3.60;;;1.30;;
48522;SDS011;34315;50.150;11.070;2023-12-20T06:40:39;3.60;;;1.70;;
48522;SDS011;34315;50.150;11.070;2023-12-20T06:45:40;3.25;;;1.90;;
48522;SDS011;34315;50.150;11.070;2023-12-20T06:50:41;2.58;;;1.65;;
48522;SDS011;34315;50.150;11.070;2023-12-20T06:55:42;3.05;;;1.88;;
48522;SDS011;34315;50.150;11.070;2023-12-20T07:00:44;6.90;;;2.15;;
48522;SDS011;34315;50.150;11.070;2023-12-20T07:05:45;3.03;;;1.88;;
48522;SDS011;34315;50.150;11.070;2023-12-20T07:10:46;3.50;;;1.90;;
48522;SDS011;34315;50.150;11.070;2023-12-20T07:15:48;3.45;;;1.90;;
48522;SDS011;34315;50.150;11.070;2023-12-20T07:20:49;4.40;;;1.90;;
48522;SDS011;34315;50.150;11.070;2023-12-20T07:25:50;2.50;;;1.83;;
48522;SDS011;34315;50.150;11.070;2023-12-20T07:30:51;4.88;;;1.80;;
48522;SDS011;34315;50.150;11.070;2023-12-20T07:35:52;7.38;;;2.13;;
48522;SDS011;34315;50.150;11.070;2023-12-20T07:40:53;3.50;;;2.33;;
48522;SDS011;34315;50.150;11.070;2023-12-20T07:45:54;3.53;;;2.15;;
48522;SDS011;34315;50.150;11.070;2023-12-20T07:50:55;3.45;;;2.00;;
48522;SDS011;34315;50.150;11.070;2023-12-20T07:55:57;4.63;;;2.75;;
48522;SDS011;34315;50.150;11.070;2023-12-20T08:00:58;5.97;;;3.17;;
48522;SDS011;34315;50.150;11.070;2023-12-20T08:06:00;5.28;;;2.58;;
48522;SDS011;34315;50.150;11.070;2023-12-20T08:11:01;4.35;;;2.80;;
48522;SDS011;34315;50.150;11.070;2023-12-20T08:16:03;4.93;;;2.65;;
48522;SDS011;34315;50.150;11.070;2023-12-20T08:21:05;5.20;;;3.17;;
48522;SDS011;34315;50.150;11.070;2023-12-20T08:26:08;5.85;;;3.42;;
48522;SDS011;34315;50.150;11.070;2023-12-20T08:31:13;5.90;;;3.67;;
48522;SDS011;34315;50.150;11.070;2023-12-20T08:36:15;5.88;;;2.88;;
48522;SDS011;34315;50.150;11.070;2023-12-20T08:41:18;7.22;;;3.40;;
48522;SDS011;34315;50.150;11.070;2023-12-20T08:46:20;6.78;;;3.50;;
48522;SDS011;34315;50.150;11.070;2023-12-20T08:51:21;7.50;;;3.92;;
48522;SDS011;34315;50.150;11.070;2023-12-20T08:56:24;6.97;;;3.78;;
48522;SDS011;34315;50.150;11.070;2023-12-20T09:01:25;4.45;;;3.08;;
48522;SDS011;34315;50.150;11.070;2023-12-20T09:06:26;6.00;;;2.95;;
48522;SDS011;34315;50.150;11.070;2023-12-20T09:11:27;5.13;;;2.30;;
48522;SDS011;34315;50.150;11.070;2023-12-20T09:16:28;4.10;;;2.05;;
48522;SDS011;34315;50.150;11.070;2023-12-20T09:21:32;4.47;;;2.10;;
48522;SDS011;34315;50.150;11.070;2023-12-20T09:26:33;3.47;;;2.05;;
48522;SDS011;34315;50.150;11.070;2023-12-20T09:31:36;4.70;;;2.05;;
48522;SDS011;34315;50.150;11.070;2023-12-20T09:36:37;3.72;;;2.00;;
48522;SDS011;34315;50.150;11.070;2023-12-20T09:41:42;5.60;;;1.80;;
48522;SDS011;34315;50.150;11.070;2023-12-20T09:46:45;6.30;;;2.60;;
48522;SDS011;34315;50.150;11.070;2023-12-20T09:51:50;4.55;;;1.80;;
48522;SDS011;34315;50.150;11.070;2023-12-20T09:56:52;6.82;;;2.28;;
48522;SDS011;34315;50.150;11.070;2023-12-20T10:01:54;3.45;;;1.70;;
48522;SDS011;34315;50.150;11.070;2023-12-20T10:06:56;3.10;;;1.42;;
48522;SDS011;34315;50.150;11.070;2023-12-20T10:11:57;4.88;;;1.70;;
48522;SDS011;34315;50.150;11.070;2023-12-20T10:17:03;3.50;;;1.33;;
48522;SDS011;34315;50.150;11.070;2023-12-20T10:27:06;3.60;;;1.55;;
48522;SDS011;34315;50.150;11.070;2023-12-20T10:32:24;6.45;;;1.58;;
48522;SDS011;34315;50.150;11.070;2023-12-20T10:37:26;4.25;;;1.60;;
48522;SDS011;34315;50.150;11.070;2023-12-20T10:42:28;2.60;;;1.35;;
48522;SDS011;34315;50.150;11.070;2023-12-20T10:47:30;4.70;;;1.67;;
48522;SDS011;34315;50.150;11.070;2023-12-20T10:52:31;7.45;;;1.70;;
48522;SDS011;34315;50.150;11.070;2023-12-20T10:57:33;4.50;;;1.42;;
48522;SDS011;34315;50.150;11.070;2023-12-20T11:02:38;4.93;;;1.20;;
48522;SDS011;34315;50.150;11.070;2023-12-20T11:07:50;5.13;;;1.55;;
48522;SDS011;34315;50.150;11.070;2023-12-20T11:13:06;2.92;;;1.45;;
48522;SDS011;34315;50.150;11.070;2023-12-20T11:18:11;5.25;;;1.85;;
48522;SDS011;34315;50.150;11.070;2023-12-20T11:23:12;5.55;;;1.33;;
48522;SDS011;34315;50.150;11.070;2023-12-20T11:28:13;6.68;;;1.50;;
48522;SDS011;34315;50.150;11.070;2023-12-20T11:33:15;3.28;;;1.88;;
48522;SDS011;34315;50.150;11.070;2023-12-20T11:38:17;3.85;;;1.38;;
48522;SDS011;34315;50.150;11.070;2023-12-20T11:43:38;5.85;;;1.92;;
48522;SDS011;34315;50.150;11.070;2023-12-20T11:48:39;6.63;;;1.73;;
48522;SDS011;34315;50.150;11.070;2023-12-20T11:53:41;6.40;;;1.70;;
48522;SDS011;34315;50.150;11.070;2023-12-20T11:58:45;4.90;;;1.30;;
48522;SDS011;34315;50.150;11.070;2023-12-20T12:03:46;4.10;;;1.40;;
48522;SDS011;34315;50.150;11.070;2023-12-20T12:08:47;5.28;;;1.90;;
48522;SDS011;34315;50.150;11.070;2023-12-20T12:13:48;3.65;;;1.52;;
48522;SDS011;34315;50.150;11.070;2023-12-20T12:18:56;4.45;;;1.45;;
48522;SDS011;34315;50.150;11.070;2023-12-20T12:24:07;4.43;;;1.42;;
48522;SDS011;34315;50.150;11.070;2023-12-20T12:29:09;3.80;;;1.40;;
48522;SDS011;34315;50.150;11.070;2023-12-20T12:34:10;4.40;;;1.70;;
48522;SDS011;34315;50.150;11.070;2023-12-20T12:39:12;8.57;;;2.42;;
48522;SDS011;34315;50.150;11.070;2023-12-20T12:44:13;5.68;;;1.92;;
48522;SDS011;34315;50.150;11.070;2023-12-20T12:49:14;4.25;;;1.70;;
48522;SDS011;34315;50.150;11.070;2023-12-20T12:54:15;4.40;;;1.40;;
48522;SDS011;34315;50.150;11.070;2023-12-20T12:59:17;6.07;;;1.20;;
48522;SDS011;34315;50.150;11.070;2023-12-20T13:04:18;7.30;;;1.92;;
48522;SDS011;34315;50.150;11.070;2023-12-20T13:09:19;2.17;;;1.00;;
48522;SDS011;34315;50.150;11.070;2023-12-20T13:14:20;1.95;;;1.17;;
48522;SDS011;34315;50.150;11.070;2023-12-20T13:19:22;4.70;;;1.40;;
48522;SDS011;34315;50.150;11.070;2023-12-20T13:24:23;11.05;;;3.42;;
48522;SDS011;34315;50.150;11.070;2023-12-20T13:29:24;5.38;;;1.38;;
48522;SDS011;34315;50.150;11.070;2023-12-20T13:34:27;7.28;;;2.03;;
48522;SDS011;34315;50.150;11.070;2023-12-20T13:39:28;6.35;;;1.88;;
48522;SDS011;34315;50.150;11.070;2023-12-20T13:44:30;5.15;;;1.67;;
48522;SDS011;34315;50.150;11.070;2023-12-20T13:49:31;6.05;;;1.52;;
48522;SDS011;34315;50.150;11.070;2023-12-20T13:54:32;9.00;;;2.20;;
48522;SDS011;34315;50.150;11.070;2023-12-20T13:59:33;5.07;;;2.20;;
48522;SDS011;34315;50.150;11.070;2023-12-20T14:04:35;2.97;;;1.38;;
48522;SDS011;34315;50.150;11.070;2023-12-20T14:09:36;6.95;;;1.90;;
48522;SDS011;34315;50.150;11.070;2023-12-20T14:14:37;5.97;;;1.60;;
48522;SDS011;34315;50.150;11.070;2023-12-20T14:19:39;6.60;;;2.22;;
48522;SDS011;34315;50.150;11.070;2023-12-20T14:24:40;7.78;;;2.30;;
48522;SDS011;34315;50.150;11.070;2023-12-20T14:29:41;6.10;;;2.15;;
48522;SDS011;34315;50.150;11.070;2023-12-20T14:34:42;6.35;;;1.98;;
48522;SDS011;34315;50.150;11.070;2023-12-20T14:39:43;6.65;;;1.90;;
48522;SDS011;34315;50.150;11.070;2023-12-20T14:44:44;5.03;;;2.03;;
48522;SDS011;34315;50.150;11.070;2023-12-20T14:49:45;5.78;;;2.45;;
48522;SDS011;34315;50.150;11.070;2023-12-20T14:54:48;6.57;;;2.67;;
48522;SDS011;34315;50.150;11.070;2023-12-20T14:59:49;5.30;;;1.50;;
48522;SDS011;34315;50.150;11.070;2023-12-20T15:04:51;4.45;;;1.80;;
48522;SDS011;34315;50.150;11.070;2023-12-20T15:09:52;10.25;;;2.08;;
48522;SDS011;34315;50.150;11.070;2023-12-20T15:14:53;4.05;;;1.75;;
48522;SDS011;34315;50.150;11.070;2023-12-20T15:19:54;7.07;;;2.53;;
48522;SDS011;34315;50.150;11.070;2023-12-20T15:24:57;5.38;;;1.70;;
48522;SDS011;34315;50.150;11.070;2023-12-20T15:29:59;5.22;;;1.60;;
48522;SDS011;34315;50.150;11.070;2023-12-20T15:35:00;5.32;;;1.52;;
48522;SDS011;34315;50.150;11.070;2023-12-20T15:40:01;5.80;;;1.92;;
48522;SDS011;34315;50.150;11.070;2023-12-20T15:45:03;5.75;;;1.77;;
48522;SDS011;34315;50.150;11.070;2023-12-20T15:50:04;9.90;;;2.20;;
48522;SDS011;34315;50.150;11.070;2023-12-20T15:55:07;5.07;;;1.90;;
48522;SDS011;34315;50.150;11.070;2023-12-20T16:00:08;5.55;;;1.88;;
48522;SDS011;34315;50.150;11.070;2023-12-20T16:05:10;7.28;;;1.77;;
48522;SDS011;34315;50.150;11.070;2023-12-20T16:10:11;5.57;;;1.67;;
48522;SDS011;34315;50.150;11.070;2023-12-20T16:15:12;4.00;;;2.00;;
48522;SDS011;34315;50.150;11.070;2023-12-20T16:20:13;4.90;;;2.35;;
48522;SDS011;34315;50.150;11.070;2023-12-20T16:25:14;4.22;;;2.00;;
48522;SDS011;34315;50.150;11.070;2023-12-20T16:30:15;5.82;;;1.67;;
48522;SDS011;34315;50.150;11.070;2023-12-20T16:35:17;6.60;;;2.63;;
48522;SDS011;34315;50.150;11.070;2023-12-20T16:40:18;3.33;;;2.00;;
48522;SDS011;34315;50.150;11.070;2023-12-20T16:45:25;8.30;;;2.40;;
48522;SDS011;34315;50.150;11.070;2023-12-20T16:50:26;7.05;;;2.42;;
48522;SDS011;34315;50.150;11.070;2023-12-20T16:55:27;8.48;;;2.55;;
48522;SDS011;34315;50.150;11.070;2023-12-20T17:00:28;5.05;;;2.60;;
48522;SDS011;34315;50.150;11.070;2023-12-20T17:05:29;3.55;;;1.75;;
48522;SDS011;34315;50.150;11.070;2023-12-20T17:10:30;7.22;;;2.55;;
48522;SDS011;34315;50.150;11.070;2023-12-20T17:15:32;5.25;;;2.30;;
48522;SDS011;34315;50.150;11.070;2023-12-20T17:20:33;8.02;;;1.60;;
48522;SDS011;34315;50.150;11.070;2023-12-20T17:25:34;4.00;;;1.73;;
48522;SDS011;34315;50.150;11.070;2023-12-20T17:30:39;6.72;;;2.00;;
48522;SDS011;34315;50.150;11.070;2023-12-20T17:35:40;4.50;;;2.00;;
48522;SDS011;34315;50.150;11.070;2023-12-20T17:40:42;5.53;;;2.58;;
48522;SDS011;34315;50.150;11.070;2023-12-20T17:45:43;8.15;;;2.65;;
48522;SDS011;34315;50.150;11.070;2023-12-20T17:50:44;6.18;;;3.05;;
48522;SDS011;34315;50.150;11.070;2023-12-20T17:55:45;7.32;;;2.75;;
48522;SDS011;34315;50.150;11.070;2023-12-20T18:00:47;5.28;;;2.80;;
48522;SDS011;34315;50.150;11.070;2023-12-20T18:05:48;7.45;;;3.00;;
48522;SDS011;34315;50.150;11.070;2023-12-20T18:10:49;4.50;;;2.42;;
48522;SDS011;34315;50.150;11.070;2023-12-20T18:15:50;5.55;;;2.65;;
48522;SDS011;34315;50.150;11.070;2023-12-20T18:20:51;9.77;;;2.63;;
48522;SDS011;34315;50.150;11.070;2023-12-20T18:25:54;6.15;;;2.40;;
48522;SDS011;34315;50.150;11.070;2023-12-20T18:30:56;5.65;;;2.83;;
48522;SDS011;34315;50.150;11.070;2023-12-20T18:35:57;4.60;;;1.85;;
48522;SDS011;34315;50.150;11.070;2023-12-20T18:40:58;5.72;;;2.08;;
48522;SDS011;34315;50.150;11.070;2023-12-20T18:45:59;6.22;;;2.58;;
48522;SDS011;34315;50.150;11.070;2023-12-20T18:51:03;6.63;;;3.10;;
48522;SDS011;34315;50.150;11.070;2023-12-20T18:56:04;9.95;;;2.78;;
48522;SDS011;34315;50.150;11.070;2023-12-20T19:01:05;6.85;;;2.47;;
48522;SDS011;34315;50.150;11.070;2023-12-20T19:06:06;4.03;;;2.00;;
48522;SDS011;34315;50.150;11.070;2023-12-20T19:11:07;4.78;;;2.20;;
48522;SDS011;34315;50.150;11.070;2023-12-20T19:16:08;7.40;;;2.88;;
48522;SDS011;34315;50.150;11.070;2023-12-20T19:21:09;6.25;;;2.25;;
48522;SDS011;34315;50.150;11.070;2023-12-20T19:26:11;3.83;;;2.10;;
48522;SDS011;34315;50.150;11.070;2023-12-20T19:31:13;8.82;;;2.47;;
48522;SDS011;34315;50.150;11.070;2023-12-20T19:36:15;4.43;;;1.95;;
48522;SDS011;34315;50.150;11.070;2023-12-20T19:41:16;5.55;;;2.13;;
48522;SDS011;34315;50.150;11.070;2023-12-20T19:46:18;6.25;;;2.40;;
48522;SDS011;34315;50.150;11.070;2023-12-20T19:51:19;6.13;;;2.65;;
48522;SDS011;34315;50.150;11.070;2023-12-20T19:56:20;7.05;;;2.38;;
48522;SDS011;34315;50.150;11.070;2023-12-20T20:01:21;4.95;;;2.33;;
48522;SDS011;34315;50.150;11.070;2023-12-20T20:06:22;4.20;;;2.50;;
48522;SDS011;34315;50.150;11.070;2023-12-20T20:11:23;6.57;;;1.95;;
48522;SDS011;34315;50.150;11.070;2023-12-20T20:16:24;4.20;;;1.88;;
48522;SDS011;34315;50.150;11.070;2023-12-20T20:21:26;6.07;;;2.20;;
48522;SDS011;34315;50.150;11.070;2023-12-20T20:26:27;5.35;;;1.90;;
48522;SDS011;34315;50.150;11.070;2023-12-20T20:31:28;4.93;;;2.10;;
48522;SDS011;34315;50.150;11.070;2023-12-20T20:36:32;5.50;;;2.03;;
48522;SDS011;34315;50.150;11.070;2023-12-20T20:41:34;4.78;;;2.28;;
48522;SDS011;34315;50.150;11.070;2023-12-20T20:46:35;7.90;;;3.08;;
48522;SDS011;34315;50.150;11.070;2023-12-20T20:51:36;4.30;;;2.20;;
48522;SDS011;34315;50.150;11.070;2023-12-20T20:56:37;5.28;;;2.28;;
48522;SDS011;34315;50.150;11.070;2023-12-20T21:01:38;3.92;;;2.13;;
48522;SDS011;34315;50.150;11.070;2023-12-20T21:06:39;5.47;;;2.20;;
48522;SDS011;34315;50.150;11.070;2023-12-20T21:11:41;3.75;;;1.92;;
48522;SDS011;34315;50.150;11.070;2023-12-20T21:16:42;4.53;;;2.40;;
48522;SDS011;34315;50.150;11.070;2023-12-20T21:21:43;3.58;;;2.10;;
48522;SDS011;34315;50.150;11.070;2023-12-20T21:26:44;5.75;;;2.33;;
48522;SDS011;34315;50.150;11.070;2023-12-20T21:31:45;5.38;;;2.30;;
48522;SDS011;34315;50.150;11.070;2023-12-20T21:36:46;6.57;;;1.92;;
48522;SDS011;34315;50.150;11.070;2023-12-20T21:41:48;4.30;;;2.15;;
48522;SDS011;34315;50.150;11.070;2023-12-20T21:46:50;3.30;;;2.10;;
48522;SDS011;34315;50.150;11.070;2023-12-20T21:51:51;4.40;;;2.28;;
48522;SDS011;34315;50.150;11.070;2023-12-20T21:56:53;3.58;;;2.05;;
48522;SDS011;34315;50.150;11.070;2023-12-20T22:01:55;3.15;;;2.03;;
48522;SDS011;34315;50.150;11.070;2023-12-20T22:06:57;7.32;;;2.28;;
48522;SDS011;34315;50.150;11.070;2023-12-20T22:11:58;3.72;;;2.35;;
48522;SDS011;34315;50.150;11.070;2023-12-20T22:16:59;4.55;;;2.50;;
48522;SDS011;34315;50.150;11.070;2023-12-20T22:22:00;6.28;;;2.20;;
48522;SDS011;34315;50.150;11.070;2023-12-20T22:27:01;6.57;;;2.28;;
48522;SDS011;34315;50.150;11.070;2023-12-20T22:32:02;4.18;;;2.00;;
48522;SDS011;34315;50.150;11.070;2023-12-20T22:37:03;4.30;;;2.13;;
48522;SDS011;34315;50.150;11.070;2023-12-20T22:42:04;3.33;;;2.17;;
48522;SDS011;34315;50.150;11.070;2023-12-20T22:47:07;5.05;;;2.30;;
48522;SDS011;34315;50.150;11.070;2023-12-20T22:52:11;5.80;;;2.58;;
48522;SDS011;34315;50.150;11.070;2023-12-20T22:57:12;5.65;;;2.10;;
48522;SDS011;34315;50.150;11.070;2023-12-20T23:02:13;3.45;;;2.00;;
48522;SDS011;34315;50.150;11.070;2023-12-20T23:07:18;6.95;;;2.47;;
48522;SDS011;34315;50.150;11.070;2023-12-20T23:12:20;5.00;;;2.20;;
48522;SDS011;34315;50.150;11.070;2023-12-20T23:17:21;3.88;;;2.22;;
48522;SDS011;34315;50.150;11.070;2023-12-20T23:22:23;4.93;;;2.33;;
48522;SDS011;34315;50.150;11.070;2023-12-20T23:27:24;4.90;;;2.67;;
48522;SDS011;34315;50.150;11.070;2023-12-20T23:32:25;4.18;;;2.25;;
48522;SDS011;34315;50.150;11.070;2023-12-20T23:37:26;4.90;;;2.25;;
48522;SDS011;34315;50.150;11.070;2023-12-20T23:42:27;4.38;;;2.35;;
48522;SDS011;34315;50.150;11.070;2023-12-20T23:47:28;4.78;;;2.38;;
48522;SDS011;34315;50.150;11.070;2023-12-20T23:52:29;5.18;;;2.35;;
48522;SDS011;34315;50.150;11.070;2023-12-20T23:57:31;4.65;;;2.30;;
